Time;durP1;ratioP1;P1;durP2;ratioP2;P2;SDS_P1;SDS_P2;PMS_P1;PMS_P2;Temp;Humidity;BMP_temperature;BMP_pressure;BME280_temperature;BME280_humidity;BME280_pressure;Samples;Min_cycle;Max_cycle;Signal;HPM_P1;HPM_P2
2023/01/28 00:00:51;;;;;;;71.53;25.37;;;;;;;-0.92;100.00;100587.88;5050682;23;20311;-68
2023/01/28 00:03:18;;;;;;;72.73;24.07;;;;;;;-0.91;100.00;100589.59;5042292;23;20437;-69
2023/01/28 00:05:45;;;;;;;67.63;23.87;;;;;;;-0.91;100.00;100589.59;5040160;23;20243;-68
2023/01/28 00:08:13;;;;;;;67.37;24.43;;;;;;;-0.91;100.00;100588.75;5052874;23;21765;-68
2023/01/28 00:10:41;;;;;;;72.47;25.70;;;;;;;-0.92;100.00;100587.88;5079736;23;20213;-70
2023/01/28 00:13:13;;;;;;;64.57;24.43;;;;;;;-0.92;100.00;100590.50;5061088;23;20213;-67
2023/01/28 00:15:39;;;;;;;69.97;23.93;;;;;;;-0.87;100.00;100593.78;5043820;23;22453;-68
2023/01/28 00:18:06;;;;;;;72.63;24.03;;;;;;;-0.87;100.00;100588.56;5046730;23;22926;-69
2023/01/28 00:20:34;;;;;;;77.00;25.80;;;;;;;-0.78;100.00;100589.03;5048170;23;21813;-67
2023/01/28 00:23:00;;;;;;;70.00;24.47;;;;;;;-0.81;100.00;100590.03;5031739;23;20604;-70
2023/01/28 00:25:27;;;;;;;70.10;25.70;;;;;;;-0.81;100.00;100579.59;5046134;23;20282;-67
2023/01/28 00:27:54;;;;;;;74.03;26.43;;;;;;;-0.83;100.00;100586.63;5083103;23;20204;-69
2023/01/28 00:30:20;;;;;;;70.67;24.43;;;;;;;-0.74;100.00;100582.78;5053754;23;20700;-68
2023/01/28 00:32:47;;;;;;;69.13;25.17;;;;;;;-0.75;100.00;100583.69;5062732;23;22084;-66
2023/01/28 00:35:14;;;;;;;73.47;25.50;;;;;;;-0.81;100.00;100594.41;5061928;23;22850;-66
2023/01/28 00:37:41;;;;;;;69.97;25.70;;;;;;;-0.85;100.00;100599.75;5052221;23;21495;-68
2023/01/28 00:40:08;;;;;;;71.53;26.10;;;;;;;-0.84;100.00;100595.41;5049210;23;20443;-69
2023/01/28 00:42:36;;;;;;;74.77;27.23;;;;;;;-0.79;100.00;100595.19;5060576;23;20218;-67
2023/01/28 00:45:02;;;;;;;74.00;27.37;;;;;;;-0.81;100.00;100591.81;5062376;23;25289;-69
2023/01/28 00:47:29;;;;;;;75.67;25.97;;;;;;;-0.82;100.00;100590.09;5038206;23;20253;-67
2023/01/28 00:49:56;;;;;;;79.20;27.10;;;;;;;-0.79;100.00;100587.38;5067263;23;20201;-68
2023/01/28 00:52:22;;;;;;;71.60;25.87;;;;;;;-0.80;100.00;100586.50;5064402;23;20255;-69
2023/01/28 00:54:49;;;;;;;82.27;26.60;;;;;;;-0.83;100.00;100583.19;5068493;23;21703;-69
2023/01/28 00:57:15;;;;;;;66.03;25.43;;;;;;;-0.88;100.00;100589.47;5032633;23;20277;-69
2023/01/28 00:59:42;;;;;;;71.40;25.37;;;;;;;-0.87;100.00;100588.56;5078780;23;20634;-70
2023/01/28 01:02:11;;;;;;;72.03;25.53;;;;;;;-0.85;100.00;100585.84;5061895;23;20325;-69
2023/01/28 01:04:39;;;;;;;69.33;25.03;;;;;;;-0.88;100.00;100584.22;5048163;23;20207;-70
2023/01/28 01:07:06;;;;;;;68.53;24.60;;;;;;;-0.82;100.00;100583.13;5049802;23;20706;-69
2023/01/28 01:09:33;;;;;;;70.73;26.03;;;;;;;-0.82;100.00;100588.34;5083344;23;20229;-69
2023/01/28 01:11:59;;;;;;;67.70;25.60;;;;;;;-0.79;100.00;100579.53;5048543;23;21254;-68
2023/01/28 01:14:26;;;;;;;63.50;24.73;;;;;;;-0.71;100.00;100580.84;5107946;23;20215;-68
2023/01/28 01:16:53;;;;;;;65.57;25.20;;;;;;;-0.72;100.00;100580.94;5062806;23;20223;-68
2023/01/28 01:19:19;;;;;;;60.47;24.70;;;;;;;-0.78;100.00;100583.81;5053085;23;20306;-68
2023/01/28 01:21:49;;;;;;;73.30;26.30;;;;;;;-0.74;100.00;100577.56;5055369;23;20214;-68
2023/01/28 01:24:16;;;;;;;65.80;24.53;;;;;;;-0.74;100.00;100580.16;5060390;23;24921;-68
2023/01/28 01:26:42;;;;;;;62.63;24.10;;;;;;;-0.75;100.00;100581.94;5052671;23;20301;-70
2023/01/28 01:29:09;;;;;;;66.23;25.53;;;;;;;-0.70;100.00;100584.34;5062477;23;21646;-68
2023/01/28 01:31:36;;;;;;;62.60;23.70;;;;;;;-0.66;100.00;100583.25;5071101;23;20251;-69
2023/01/28 01:34:02;;;;;;;57.90;23.57;;;;;;;-0.64;100.00;100576.19;5044383;23;20200;-68
2023/01/28 01:36:30;;;;;;;66.97;25.57;;;;;;;-0.69;100.00;100575.56;5050997;23;20374;-69
2023/01/28 01:38:56;;;;;;;61.30;23.73;;;;;;;-0.76;100.00;100572.38;5066212;23;20204;-68
2023/01/28 01:41:30;;;;;;;66.43;24.33;;;;;;;-0.75;100.00;100578.44;5057187;23;20208;-67
2023/01/28 01:43:59;;;;;;;60.40;23.93;;;;;;;-0.63;100.00;100577.91;5049899;23;20258;-67
2023/01/28 01:46:36;;;;;;;60.50;24.00;;;;;;;-0.58;100.00;100575.09;5056961;23;20233;-67
2023/01/28 01:49:14;;;;;;;63.60;23.83;;;;;;;-0.61;100.00;100586.50;5066492;23;20207;-68
2023/01/28 01:51:43;;;;;;;56.53;22.60;;;;;;;-0.63;100.00;100580.53;5073962;23;20881;-69
2023/01/28 01:54:09;;;;;;;61.13;23.93;;;;;;;-0.74;100.00;100578.38;5045696;23;20212;-70
2023/01/28 01:56:40;;;;;;;54.63;23.10;;;;;;;-0.73;100.00;100581.84;5059286;23;23750;-69
2023/01/28 01:59:11;;;;;;;59.77;22.60;;;;;;;-0.72;100.00;100578.34;5043994;23;20288;-66
2023/01/28 02:01:38;;;;;;;57.20;23.30;;;;;;;-0.71;100.00;100586.09;5038528;23;21543;-69
2023/01/28 02:04:25;;;;;;;54.77;22.73;;;;;;;-0.75;100.00;100583.69;5045449;23;20319;-67
2023/01/28 02:06:52;;;;;;;57.13;22.27;;;;;;;-0.79;100.00;100588.22;5030888;23;20200;-68
2023/01/28 02:09:34;;;;;;;69.20;24.67;;;;;;;-0.80;100.00;100575.19;5071266;23;20263;-72
2023/01/28 02:12:08;;;;;;;56.17;23.13;;;;;;;-0.76;100.00;100580.22;5061347;23;21002;-69
2023/01/28 02:14:38;;;;;;;55.10;20.87;;;;;;;-0.79;100.00;100587.38;5048550;23;20215;-68
2023/01/28 02:17:05;;;;;;;55.63;23.33;;;;;;;-0.81;100.00;100586.59;5049662;23;20212;-68
2023/01/28 02:19:42;;;;;;;60.10;23.57;;;;;;;-0.79;100.00;100592.59;5050948;23;20388;-70
2023/01/28 02:22:23;;;;;;;59.83;23.07;;;;;;;-0.79;100.00;100587.38;5052475;23;21218;-67
2023/01/28 02:25:00;;;;;;;57.10;22.37;;;;;;;-0.82;100.00;100585.75;5036843;23;20362;-69
2023/01/28 02:28:14;;;;;;;55.40;21.27;;;;;;;-0.79;100.00;100587.38;5059770;23;20200;-70
2023/01/28 02:30:50;;;;;;;57.27;21.53;;;;;;;-0.77;100.00;100593.34;4996911;23;20204;-70
2023/01/28 02:33:25;;;;;;;51.87;21.67;;;;;;;-0.79;100.00;100592.59;5036451;23;21187;-67
2023/01/28 02:35:53;;;;;;;54.47;21.53;;;;;;;-0.80;100.00;100591.72;5029442;23;20259;-68
2023/01/28 02:38:27;;;;;;;52.17;21.07;;;;;;;-0.84;100.00;100592.78;5046168;23;20642;-70
2023/01/28 02:41:09;;;;;;;54.27;21.00;;;;;;;-0.79;100.00;100577.75;5035983;23;20784;-69
2023/01/28 02:43:41;;;;;;;55.63;20.80;;;;;;;-0.79;100.00;100590.81;5044974;23;20208;-70
2023/01/28 02:49:17;;;;;;;52.17;20.03;;;;;;;-0.64;100.00;100591.88;5043096;23;20423;-69
2023/01/28 02:52:07;;;;;;;44.53;19.33;;;;;;;-0.62;100.00;100590.03;5051947;23;20212;-68
2023/01/28 02:55:19;;;;;;;44.70;19.43;;;;;;;-0.73;100.00;100585.28;5059016;23;20208;-70
2023/01/28 02:58:01;;;;;;;47.60;18.47;;;;;;;-0.67;100.00;100590.25;5036170;23;20370;-70
2023/01/28 03:00:38;;;;;;;46.03;18.93;;;;;;;-0.67;100.00;100587.66;5054431;23;20242;-69
2023/01/28 03:03:14;;;;;;;43.93;18.00;;;;;;;-0.75;100.00;100595.00;5050726;23;23208;-69
2023/01/28 03:06:02;;;;;;;47.50;18.13;;;;;;;-0.69;100.00;100593.88;5038497;23;20268;-68
2023/01/28 03:36:50;;;;;;;47.13;18.03;;;;;;;-0.87;100.00;100591.16;5089180;23;20279;-70
2023/01/28 03:39:18;;;;;;;36.70;16.60;;;;;;;-0.88;100.00;100592.06;5074471;23;20598;-71
2023/01/28 03:42:05;;;;;;;40.27;16.80;;;;;;;-0.88;100.00;100599.06;5043490;23;20252;-68
2023/01/28 03:47:25;;;;;;;42.60;17.57;;;;;;;-0.85;100.00;100604.97;5075159;23;20211;-70
2023/01/28 03:49:54;;;;;;;47.30;17.13;;;;;;;-0.86;100.00;100600.69;5056518;23;20272;-69
2023/01/28 03:52:23;;;;;;;44.57;17.97;;;;;;;-0.80;100.00;100601.31;5043177;23;21557;-72
2023/01/28 03:54:51;;;;;;;41.47;17.37;;;;;;;-0.81;100.00;100599.66;5070575;23;20203;-71
2023/01/28 03:57:23;;;;;;;46.37;17.63;;;;;;;-0.82;100.00;100600.53;5077455;23;20397;-70
2023/01/28 03:59:51;;;;;;;42.07;17.50;;;;;;;-0.82;100.00;100595.31;5043485;23;20211;-69
2023/01/28 04:02:20;;;;;;;40.83;17.13;;;;;;;-0.80;100.00;100599.56;5060320;23;20279;-68
2023/01/28 04:04:47;;;;;;;43.87;17.23;;;;;;;-0.79;100.00;100593.44;5052795;23;20229;-70
2023/01/28 04:07:14;;;;;;;42.67;17.17;;;;;;;-0.84;100.00;100600.63;5060884;23;21201;-68
2023/01/28 04:09:41;;;;;;;43.27;17.20;;;;;;;-0.89;100.00;100598.22;5048116;23;20700;-70
2023/01/28 04:12:08;;;;;;;46.13;18.40;;;;;;;-0.83;100.00;100601.47;5047414;23;20215;-70
2023/01/28 04:14:35;;;;;;;47.53;17.10;;;;;;;-0.81;100.00;100607.47;5056429;23;22670;-70
2023/01/28 04:17:01;;;;;;;52.97;18.27;;;;;;;-0.87;100.00;100600.75;5028397;23;20701;-71
2023/01/28 04:19:30;;;;;;;45.50;17.53;;;;;;;-0.87;100.00;100599.00;5072701;23;21579;-69
2023/01/28 04:21:57;;;;;;;41.20;17.03;;;;;;;-0.90;100.00;100593.91;5052102;23;21182;-70
2023/01/28 04:24:23;;;;;;;47.97;18.13;;;;;;;-0.93;100.00;100601.03;5043999;23;20379;-69
2023/01/28 04:26:50;;;;;;;51.60;19.20;;;;;;;-0.94;100.00;100596.72;5097753;23;20208;-69
2023/01/28 04:29:16;;;;;;;45.67;18.60;;;;;;;-0.94;100.00;100594.94;5033850;23;22884;-68
2023/01/28 04:31:43;;;;;;;43.17;17.37;;;;;;;-0.90;100.00;100593.91;5048338;23;20983;-72
2023/01/28 04:34:10;;;;;;;45.13;17.60;;;;;;;-0.92;100.00;100595.72;5044210;23;20225;-70
2023/01/28 04:36:37;;;;;;;47.20;17.97;;;;;;;-0.85;100.00;100604.97;5092502;23;21530;-71
2023/01/28 04:39:03;;;;;;;47.83;17.63;;;;;;;-0.85;100.00;100598.91;5050992;23;20219;-71
2023/01/28 04:41:30;;;;;;;50.67;19.73;;;;;;;-0.85;100.00;100601.53;5066241;23;20318;-71
2023/01/28 04:43:56;;;;;;;51.33;20.33;;;;;;;-0.83;100.00;100606.69;5061184;23;20240;-72
2023/01/28 04:46:23;;;;;;;45.67;18.47;;;;;;;-0.83;100.00;100604.94;5042194;23;20212;-72
2023/01/28 04:48:50;;;;;;;44.13;18.50;;;;;;;-0.82;100.00;100603.16;5048999;23;20416;-70
2023/01/28 04:51:16;;;;;;;48.10;18.43;;;;;;;-0.87;100.00;100601.63;5062771;23;22909;-71
2023/01/28 04:53:43;;;;;;;43.40;17.80;;;;;;;-0.79;100.00;100605.66;5071554;23;22543;-69
2023/01/28 04:56:09;;;;;;;44.73;18.10;;;;;;;-0.83;100.00;100607.53;5072478;23;20229;-71
2023/01/28 04:58:36;;;;;;;38.13;17.77;;;;;;;-0.84;100.00;100611.09;5067215;23;20578;-72
2023/01/28 05:01:02;;;;;;;44.57;18.77;;;;;;;-0.83;100.00;100611.91;5047019;23;20327;-70
2023/01/28 05:03:29;;;;;;;44.53;18.77;;;;;;;-0.81;100.00;100613.53;5063697;23;20200;-72
2023/01/28 05:05:55;;;;;;;45.03;18.17;;;;;;;-0.80;100.00;100609.16;5072706;23;20200;-72
2023/01/28 05:08:22;;;;;;;46.10;17.73;;;;;;;-0.76;100.00;100610.72;5042415;23;20543;-70
2023/01/28 05:10:48;;;;;;;43.77;18.10;;;;;;;-0.74;100.00;100611.50;5045133;23;20207;-70
2023/01/28 05:13:15;;;;;;;39.43;16.37;;;;;;;-0.74;100.00;100614.97;5038477;23;20429;-72
2023/01/28 05:15:42;;;;;;;41.70;17.20;;;;;;;-0.66;100.00;100614.63;5055448;23;20263;-71
2023/01/28 05:18:08;;;;;;;43.17;16.27;;;;;;;-0.74;100.00;100619.34;5058477;23;20276;-71
2023/01/28 05:20:35;;;;;;;41.77;16.90;;;;;;;-0.65;100.00;100613.72;5067514;23;20204;-71
2023/01/28 05:23:01;;;;;;;48.07;17.37;;;;;;;-0.61;100.00;100617.03;5071854;23;20219;-70
2023/01/28 05:25:28;;;;;;;41.70;17.57;;;;;;;-0.71;100.00;100617.44;5054637;23;22496;-70
2023/01/28 05:27:54;;;;;;;45.17;16.87;;;;;;;-0.60;100.00;100624.81;5054765;23;20627;-71
2023/01/28 05:30:21;;;;;;;45.87;18.27;;;;;;;-0.77;100.00;100619.47;5072591;23;23524;-71
2023/01/28 05:32:48;;;;;;;46.00;16.67;;;;;;;-0.87;100.00;100617.28;5068521;23;20284;-70
2023/01/28 05:35:15;;;;;;;43.23;17.80;;;;;;;-0.87;100.00;100626.88;5057779;23;20292;-69
2023/01/28 05:37:42;;;;;;;45.43;17.83;;;;;;;-0.87;100.00;100617.28;5047654;23;20214;-71
2023/01/28 05:40:09;;;;;;;45.33;18.20;;;;;;;-0.82;100.00;100618.81;5058331;23;20210;-70
2023/01/28 05:42:35;;;;;;;41.20;17.00;;;;;;;-0.84;100.00;100624.16;5063768;23;20255;-72
2023/01/28 05:45:02;;;;;;;46.27;18.93;;;;;;;-0.85;100.00;100618.03;5049833;23;20200;-72
2023/01/28 05:47:29;;;;;;;50.07;18.50;;;;;;;-0.85;100.00;100620.66;5051654;23;20264;-70
2023/01/28 05:49:55;;;;;;;45.67;18.03;;;;;;;-0.82;100.00;100629.28;5042564;23;21430;-71
2023/01/28 05:52:22;;;;;;;46.47;18.73;;;;;;;-0.74;100.00;100627.19;5061261;23;20594;-71
2023/01/28 05:54:48;;;;;;;45.37;17.20;;;;;;;-0.73;100.00;100628.88;5053683;23;20274;-71
2023/01/28 05:57:15;;;;;;;42.13;17.53;;;;;;;-0.77;100.00;100625.56;5065632;23;20208;-71
2023/01/28 05:59:41;;;;;;;43.63;16.93;;;;;;;-0.73;100.00;100627.09;5040822;23;20219;-71
2023/01/28 06:02:08;;;;;;;46.33;18.20;;;;;;;-0.64;100.00;100629.31;5021572;23;20649;-70
2023/01/28 06:04:35;;;;;;;43.97;16.30;;;;;;;-0.66;100.00;100631.16;5040288;23;21191;-69
2023/01/28 06:07:01;;;;;;;46.20;18.10;;;;;;;-0.72;100.00;100626.22;5046098;23;20212;-69
2023/01/28 06:09:28;;;;;;;42.73;16.97;;;;;;;-0.75;100.00;100634.19;5021583;23;20208;-69
2023/01/28 06:11:54;;;;;;;49.03;18.70;;;;;;;-0.80;100.00;100635.28;5020126;23;20379;-69
2023/01/28 06:14:21;;;;;;;49.17;17.57;;;;;;;-0.79;100.00;100640.47;5033947;23;20264;-71
2023/01/28 06:16:47;;;;;;;41.23;16.17;;;;;;;-0.79;100.00;100635.22;5042394;23;20219;-70
2023/01/28 06:19:14;;;;;;;45.77;16.57;;;;;;;-0.81;100.00;100641.44;5024053;23;23070;-71
2023/01/28 06:21:42;;;;;;;50.07;19.00;;;;;;;-0.76;100.00;100649.94;5048651;23;20374;-70
2023/01/28 06:24:08;;;;;;;42.23;17.27;;;;;;;-0.77;100.00;100650.81;5054409;23;20255;-72
2023/01/28 06:26:35;;;;;;;44.83;17.13;;;;;;;-0.67;100.00;100654.75;5049136;23;20247;-71
2023/01/28 06:29:01;;;;;;;49.03;18.43;;;;;;;-0.69;100.00;100656.56;5048239;23;20204;-68
2023/01/28 06:31:28;;;;;;;44.53;18.17;;;;;;;-0.64;100.00;100657.22;5054067;23;20426;-69
2023/01/28 06:33:54;;;;;;;43.57;16.93;;;;;;;-0.71;100.00;100653.19;5026526;23;22183;-68
2023/01/28 06:36:21;;;;;;;44.83;17.40;;;;;;;-0.75;100.00;100659.44;5038487;23;20307;-69
2023/01/28 06:38:47;;;;;;;43.63;17.57;;;;;;;-0.78;100.00;100654.38;5018060;23;20384;-68
2023/01/28 06:41:14;;;;;;;45.53;17.33;;;;;;;-0.76;100.00;100655.16;5030317;23;20210;-69
2023/01/28 06:43:40;;;;;;;47.40;16.83;;;;;;;-0.72;100.00;100662.78;5058124;23;21054;-69
2023/01/28 06:46:07;;;;;;;43.73;16.30;;;;;;;-0.71;100.00;100663.63;5040030;23;20239;-67
2023/01/28 06:48:33;;;;;;;41.53;16.57;;;;;;;-0.64;100.00;100655.44;5026853;23;20210;-70
2023/01/28 06:51:00;;;;;;;47.27;15.93;;;;;;;-0.71;100.00;100661.00;5026065;23;22924;-68
2023/01/28 06:53:26;;;;;;;49.00;18.03;;;;;;;-0.68;100.00;100663.47;5041250;23;20221;-68
2023/01/28 06:55:53;;;;;;;41.73;16.40;;;;;;;-0.71;100.00;100667.09;5042139;23;20564;-70
2023/01/28 06:58:19;;;;;;;39.87;15.60;;;;;;;-0.75;100.00;100662.94;5030521;23;23531;-70
2023/01/28 07:00:46;;;;;;;45.17;15.80;;;;;;;-0.77;100.00;100667.38;5046674;23;20284;-70
2023/01/28 07:03:12;;;;;;;36.77;14.63;;;;;;;-0.80;100.00;100669.25;5065520;23;20204;-67
2023/01/28 07:05:39;;;;;;;39.73;15.43;;;;;;;-0.71;100.00;100672.31;5028569;23;20355;-71
2023/01/28 07:08:06;;;;;;;43.27;15.10;;;;;;;-0.68;100.00;100679.16;5043140;23;20205;-72
2023/01/28 07:10:32;;;;;;;44.03;15.90;;;;;;;-0.68;100.00;100674.81;5034279;23;20256;-67
2023/01/28 07:12:59;;;;;;;40.87;15.50;;;;;;;-0.67;100.00;100675.66;5027208;23;20604;-71
2023/01/28 07:15:25;;;;;;;39.33;15.50;;;;;;;-0.70;100.00;100681.03;5036222;23;20370;-69
2023/01/28 07:17:52;;;;;;;37.97;15.23;;;;;;;-0.72;100.00;100681.06;5035092;23;20276;-69
2023/01/28 07:20:18;;;;;;;40.00;15.13;;;;;;;-0.68;100.00;100677.41;5043787;23;22839;-66
2023/01/28 07:22:45;;;;;;;38.13;15.03;;;;;;;-0.62;100.00;100684.13;5042143;23;21958;-66
2023/01/28 07:25:13;;;;;;;41.17;15.50;;;;;;;-0.66;100.00;100677.34;5039060;23;20326;-67
2023/01/28 07:27:48;;;;;;;40.43;16.10;;;;;;;-0.78;100.00;100677.88;5020701;23;20398;-66
2023/01/28 07:30:15;;;;;;;36.57;15.33;;;;;;;-0.68;100.00;100689.63;5052323;23;20203;-68
2023/01/28 07:32:42;;;;;;;42.40;15.97;;;;;;;-0.71;100.00;100684.53;5050915;23;22342;-67
2023/01/28 07:35:09;;;;;;;37.53;14.57;;;;;;;-0.74;100.00;100684.69;5034519;23;20212;-70
2023/01/28 07:37:37;;;;;;;42.73;16.87;;;;;;;-0.74;100.00;100687.28;5042197;23;22963;-64
2023/01/28 07:40:04;;;;;;;36.07;15.57;;;;;;;-0.65;100.00;100685.13;5074484;23;26311;-64
2023/01/28 07:42:31;;;;;;;39.50;14.97;;;;;;;-0.67;100.00;100691.34;5037442;23;23733;-68
2023/01/28 07:44:58;;;;;;;40.33;16.40;;;;;;;-0.74;100.00;100695.13;5029577;23;20235;-64
2023/01/28 07:47:25;;;;;;;36.27;15.27;;;;;;;-0.74;100.00;100690.75;5036254;23;22805;-63
2023/01/28 07:49:51;;;;;;;42.17;15.30;;;;;;;-0.70;100.00;100688.84;5051038;23;20930;-63
2023/01/28 07:52:18;;;;;;;34.20;16.03;;;;;;;-0.74;100.00;100697.75;5056171;23;25083;-66
2023/01/28 07:54:44;;;;;;;39.53;15.10;;;;;;;-0.50;100.00;100701.03;5041596;23;20205;-66
2023/01/28 07:57:12;;;;;;;39.30;16.17;;;;;;;-0.60;100.00;100700.59;5036925;23;21710;-66
2023/01/28 07:59:38;;;;;;;45.37;16.57;;;;;;;-0.53;100.00;100694.19;5032532;23;20257;-66
2023/01/28 08:02:05;;;;;;;38.17;16.63;;;;;;;-0.46;100.00;100698.22;5039901;23;20214;-66
2023/01/28 08:04:31;;;;;;;38.60;16.20;;;;;;;-0.52;100.00;100701.09;5073248;23;21886;-67
2023/01/28 08:06:58;;;;;;;47.73;22.50;;;;;;;-0.34;100.00;100698.59;5055815;23;22046;-64
2023/01/28 08:09:24;;;;;;;44.20;18.80;;;;;;;-0.26;100.00;100689.50;5064634;23;20210;-67
2023/01/28 08:11:52;;;;;;;40.03;17.03;;;;;;;-0.28;100.00;100693.94;5050879;23;20204;-66
2023/01/28 08:14:18;;;;;;;38.37;16.87;;;;;;;-0.47;100.00;100693.91;5089713;23;20208;-68
2023/01/28 08:16:45;;;;;;;40.37;18.60;;;;;;;-0.47;100.00;100693.91;5068596;23;20311;-65
2023/01/28 08:19:11;;;;;;;41.70;17.07;;;;;;;-0.37;100.00;100694.34;5058962;23;20212;-65
2023/01/28 08:21:38;;;;;;;38.67;17.30;;;;;;;-0.45;100.00;100692.06;5062353;23;22046;-66
2023/01/28 08:24:05;;;;;;;38.37;16.77;;;;;;;-0.42;100.00;100701.56;5056305;23;20208;-65
2023/01/28 08:26:31;;;;;;;42.63;18.43;;;;;;;-0.47;100.00;100688.69;5060954;23;20317;-69
2023/01/28 08:28:58;;;;;;;38.77;16.43;;;;;;;-0.29;100.00;100696.63;5085887;23;20272;-65
2023/01/28 08:31:24;;;;;;;43.37;18.10;;;;;;;-0.28;100.00;100693.94;5059056;23;20204;-65
2023/01/28 08:33:51;;;;;;;41.80;17.90;;;;;;;-0.43;100.00;100690.22;5060479;23;21183;-66
2023/01/28 08:36:18;;;;;;;37.43;17.10;;;;;;;-0.48;100.00;100689.59;5061732;23;20331;-67
2023/01/28 08:38:44;;;;;;;38.87;17.20;;;;;;;-0.51;100.00;100686.28;5063740;23;26022;-70
2023/01/28 08:41:14;;;;;;;38.77;17.10;;;;;;;-0.48;100.00;100686.97;5066791;23;20204;-72
2023/01/28 08:43:40;;;;;;;37.50;16.70;;;;;;;-0.46;100.00;100685.16;5075250;23;20625;-69
2023/01/28 08:46:07;;;;;;;38.50;16.97;;;;;;;-0.39;100.00;100692.72;5064895;23;20239;-72
2023/01/28 08:48:33;;;;;;;39.10;17.27;;;;;;;-0.43;100.00;100692.00;5057970;23;20206;-66
2023/01/28 08:51:00;;;;;;;37.80;17.20;;;;;;;-0.47;100.00;100693.91;5069309;23;20211;-68
2023/01/28 08:53:26;;;;;;;39.00;17.37;;;;;;;-0.44;100.00;100693.78;5050923;23;20299;-69
2023/01/28 08:55:54;;;;;;;36.33;16.43;;;;;;;-0.43;100.00;100695.47;5055453;23;21160;-68
2023/01/28 08:58:20;;;;;;;36.60;17.80;;;;;;;-0.41;100.00;100697.19;5078532;23;20446;-65
2023/01/28 09:00:47;;;;;;;38.33;17.43;;;;;;;-0.52;100.00;100701.09;5060992;23;20595;-69
2023/01/28 09:03:15;;;;;;;39.40;17.97;;;;;;;-0.44;100.00;100704.22;5057740;23;22901;-69
2023/01/28 09:05:41;;;;;;;34.33;15.90;;;;;;;-0.37;100.00;100702.19;5049143;23;20215;-71
2023/01/28 09:08:14;;;;;;;36.77;16.53;;;;;;;-0.44;100.00;100704.22;5064898;23;21506;-66
2023/01/28 09:10:41;;;;;;;39.53;17.60;;;;;;;-0.45;100.00;100710.34;5087735;23;20207;-70
2023/01/28 09:13:10;;;;;;;36.77;16.90;;;;;;;-0.44;100.00;100716.47;5054689;23;20788;-70
2023/01/28 09:15:37;;;;;;;37.87;17.20;;;;;;;-0.33;100.00;100716.84;5064612;23;20254;-71
2023/01/28 09:18:04;;;;;;;41.77;17.60;;;;;;;-0.38;100.00;100713.56;5059836;23;21190;-68
2023/01/28 09:20:31;;;;;;;39.47;18.00;;;;;;;-0.36;100.00;100716.94;5036859;23;20362;-70
2023/01/28 09:22:59;;;;;;;37.67;18.13;;;;;;;-0.41;100.00;100725.94;5053497;23;20272;-68
2023/01/28 09:25:26;;;;;;;37.47;16.60;;;;;;;-0.44;100.00;100729.53;5049168;23;22693;-67
2023/01/28 09:27:53;;;;;;;36.83;16.53;;;;;;;-0.46;100.00;100726.97;5058215;23;20526;-65
2023/01/28 09:30:19;;;;;;;41.73;17.23;;;;;;;-0.47;100.00;100722.69;5050464;23;20266;-68
2023/01/28 09:32:50;;;;;;;39.30;17.90;;;;;;;-0.52;100.00;100723.78;5062330;23;20201;-67
2023/01/28 09:35:17;;;;;;;40.13;16.97;;;;;;;-0.47;100.00;100720.06;5061506;23;20334;-67
2023/01/28 09:37:43;;;;;;;42.60;18.33;;;;;;;-0.50;100.00;100720.19;5063401;23;20212;-70
2023/01/28 09:40:16;;;;;;;39.73;18.70;;;;;;;-0.51;100.00;100721.09;5062875;23;20204;-70
2023/01/28 09:43:03;;;;;;;37.67;18.20;;;;;;;-0.51;100.00;100728.09;5058623;23;21498;-69
2023/01/28 09:45:38;;;;;;;44.90;18.77;;;;;;;-0.55;100.00;100727.38;5083915;23;23106;-72
2023/01/28 09:48:11;;;;;;;38.70;17.10;;;;;;;-0.53;100.00;100725.53;5059247;23;20215;-70
2023/01/28 09:50:40;;;;;;;38.63;17.83;;;;;;;-0.33;100.00;100721.19;5061471;23;20996;-68
2023/01/28 09:53:17;;;;;;;43.27;18.73;;;;;;;-0.29;100.00;100722.75;5049760;23;21194;-69
2023/01/28 09:55:49;;;;;;;43.40;20.20;;;;;;;-0.20;100.00;100724.13;5068166;23;20212;-69
2023/01/28 09:58:16;;;;;;;37.40;17.70;;;;;;;-0.17;100.00;100730.06;5065564;23;22011;-71
2023/01/28 10:01:15;;;;;;;38.10;17.37;;;;;;;-0.18;100.00;100730.97;5052941;23;22903;-69
2023/01/28 10:03:59;;;;;;;40.20;17.70;;;;;;;-0.18;100.00;100724.91;5065208;23;20633;-68
2023/01/28 10:06:37;;;;;;;39.97;18.33;;;;;;;-0.21;100.00;100715.44;5066486;23;20303;-68
2023/01/28 10:09:29;;;;;;;39.50;17.77;;;;;;;-0.09;100.00;100714.88;5038344;23;20203;-72
2023/01/28 10:12:28;;;;;;;40.73;18.33;;;;;;;-0.15;100.00;100715.13;5073623;23;22047;-72
2023/01/28 10:15:27;;;;;;;36.77;17.30;;;;;;;-0.31;100.00;100706.28;5066442;23;20262;-71
2023/01/28 10:18:00;;;;;;;36.30;16.97;;;;;;;-0.30;100.00;100708.84;5072420;23;20517;-68
2023/01/28 10:20:55;;;;;;;34.50;17.00;;;;;;;-0.39;100.00;100713.66;5069223;23;20440;-71
2023/01/28 10:23:34;;;;;;;36.30;16.17;;;;;;;-0.21;100.00;100715.44;5055931;23;25132;-66
2023/01/28 10:26:04;;;;;;;38.10;16.87;;;;;;;-0.26;100.00;100712.16;5058576;23;22065;-69
2023/01/28 10:28:33;;;;;;;34.50;15.80;;;;;;;-0.40;100.00;100714.53;5054953;23;20805;-72
2023/01/28 10:30:59;;;;;;;36.67;16.23;;;;;;;-0.45;100.00;100706.91;5058359;23;21976;-69
2023/01/28 10:33:26;;;;;;;33.87;16.70;;;;;;;-0.43;100.00;100705.91;5055834;23;20215;-70
2023/01/28 10:35:54;;;;;;;53.40;22.43;;;;;;;-0.41;100.00;100698.00;5068180;23;20318;-72
2023/01/28 10:38:24;;;;;;;35.60;16.97;;;;;;;-0.35;100.00;100700.38;5048774;23;20409;-69
2023/01/28 10:40:51;;;;;;;37.40;17.30;;;;;;;-0.41;100.00;100702.41;5059006;23;20833;-70
2023/01/28 10:43:24;;;;;;;40.27;18.17;;;;;;;-0.41;100.00;100699.78;5055057;23;21654;-70
2023/01/28 10:46:00;;;;;;;39.90;17.63;;;;;;;-0.41;100.00;100703.25;5046224;23;20298;-70
2023/01/28 10:48:33;;;;;;;39.40;18.23;;;;;;;-0.37;100.00;100696.97;5059296;23;20204;-70
2023/01/28 10:51:03;;;;;;;41.30;19.00;;;;;;;-0.33;100.00;100692.44;5075420;23;20251;-72
2023/01/28 10:53:37;;;;;;;45.80;19.50;;;;;;;-0.23;100.00;100696.34;5074702;23;22145;-71
2023/01/28 10:56:23;;;;;;;36.77;17.33;;;;;;;-0.10;100.00;100702.69;5077434;23;20338;-70
2023/01/28 10:59:03;;;;;;;37.13;17.40;;;;;;;-0.25;100.00;100704.25;5066824;23;20660;-73
2023/01/28 11:01:51;;;;;;;34.43;16.97;;;;;;;-0.28;100.00;100700.91;5079003;23;20620;-70
2023/01/28 11:04:22;;;;;;;36.63;18.07;;;;;;;-0.31;100.00;100693.22;5064343;23;21661;-69
2023/01/28 11:06:57;;;;;;;33.90;16.87;;;;;;;-0.38;100.00;100689.19;5065500;23;20204;-69
2023/01/28 11:09:30;;;;;;;37.17;17.33;;;;;;;-0.43;100.00;100687.63;5075904;23;20304;-70
2023/01/28 11:11:57;;;;;;;37.13;17.50;;;;;;;-0.40;100.00;100688.41;5054829;23;20255;-70
2023/01/28 11:14:26;;;;;;;40.87;19.13;;;;;;;-0.34;100.00;100688.13;5078528;23;20359;-71
2023/01/28 11:16:55;;;;;;;36.10;17.90;;;;;;;-0.20;100.00;100688.34;5062033;23;21331;-69
2023/01/28 11:19:35;;;;;;;36.93;17.17;;;;;;;-0.28;100.00;100682.59;5042572;23;20215;-68
2023/01/28 11:22:02;;;;;;;33.93;16.33;;;;;;;-0.28;100.00;100683.47;5040248;23;20871;-69
2023/01/28 11:24:31;;;;;;;34.87;17.07;;;;;;;-0.29;100.00;100675.69;5087771;23;20671;-70
2023/01/28 11:27:09;;;;;;;35.70;17.93;;;;;;;-0.26;100.00;100681.66;5060540;23;20649;-71
2023/01/28 11:29:38;;;;;;;35.83;17.63;;;;;;;-0.19;100.00;100679.56;5053167;23;22325;-69
2023/01/28 11:32:16;;;;;;;41.80;19.33;;;;;;;-0.18;100.00;100673.44;5061890;23;22361;-69
2023/01/28 11:34:51;;;;;;;39.03;18.27;;;;;;;0.02;100.00;100669.03;5049464;23;23613;-71
2023/01/28 11:37:21;;;;;;;35.43;18.20;;;;;;;-0.08;100.00;100671.25;5079747;23;21168;-68
2023/01/28 11:39:48;;;;;;;35.63;17.87;;;;;;;-0.05;100.00;100664.13;5050147;23;20212;-66
2023/01/28 11:42:18;;;;;;;36.30;16.63;;;;;;;-0.01;100.00;100665.66;5062645;23;20935;-70
2023/01/28 11:44:45;;;;;;;37.20;17.93;;;;;;;-0.07;100.00;100665.97;5057702;23;20200;-68
2023/01/28 11:47:27;;;;;;;34.57;17.13;;;;;;;-0.11;100.00;100659.16;5082620;23;20210;-70